KLEX Airport Diagram

We have created a template for each of the higher traffic airports in the vZID airspace. They include KCMH, KCRW, KCVG, KDAY, KIND, KLEX and KSDF. You wil find usefull information including the airport diagram, weather, and specific airport procedures.

KLEX Weather

[Source: ADDS]
METAR
KLEX 241505Z 05003KT 3SM -RA BR OVC003 14/13 A3004 RMK AO2 P0005 T01390128 =
TAF
KLEX 241429Z 2414/2512 04007KT 4SM -SHRA BR SCT004 BKN012 TEMPO 2414/2418 2SM -SHRA BR BKN004 FM241800 20009KT 5SM -SHRA VCTS OVC012CB TEMPO 2420/2424 2SM -TSRA BR BKN008CB FM250000 16012G17KT 5SM -SHRA VCTS OVC025CB WS020/20040KT FM250300 19012G24KT 5SM SHRA VCTS OVC030CB WS020/20060KT FM251000 25020G27KT 6SM -SHRA BR OVC025 =

KLEX Operations

Calm wind runway at KLEX is Runway 22, up to and including 10kts.

Default scenery shows Runway 8/26, which crosses Runway 22. When taxiing to Runway 22, clearance to cross Runway 26 not required.

Updated scenery available at www.flightsim.com.

 

JSN Epic template designed by JoomlaShine.com